sensor_id;sensor_type;location;lat;lon;timestamp;P1;durP1;ratioP1;P2;durP2;ratioP2
7377;SDS011;3730;50.856;12.776;2024-02-21T00:00:57;13.87;;;4.17;;
7377;SDS011;3730;50.856;12.776;2024-02-21T00:03:22;16.10;;;4.90;;
7377;SDS011;3730;50.856;12.776;2024-02-21T00:05:48;11.43;;;4.50;;
7377;SDS011;3730;50.856;12.776;2024-02-21T00:08:14;12.30;;;4.70;;
7377;SDS011;3730;50.856;12.776;2024-02-21T00:10:40;10.53;;;4.73;;
7377;SDS011;3730;50.856;12.776;2024-02-21T00:13:06;12.20;;;4.50;;
7377;SDS011;3730;50.856;12.776;2024-02-21T00:15:32;15.33;;;4.40;;
7377;SDS011;3730;50.856;12.776;2024-02-21T00:17:58;18.60;;;4.63;;
7377;SDS011;3730;50.856;12.776;2024-02-21T00:20:24;14.50;;;4.40;;
7377;SDS011;3730;50.856;12.776;2024-02-21T00:22:51;11.67;;;4.33;;
7377;SDS011;3730;50.856;12.776;2024-02-21T00:25:17;15.67;;;4.77;;
7377;SDS011;3730;50.856;12.776;2024-02-21T00:27:43;14.03;;;5.13;;
7377;SDS011;3730;50.856;12.776;2024-02-21T00:30:09;13.57;;;4.97;;
7377;SDS011;3730;50.856;12.776;2024-02-21T00:32:35;10.70;;;4.50;;
7377;SDS011;3730;50.856;12.776;2024-02-21T00:35:01;12.70;;;4.70;;
7377;SDS011;3730;50.856;12.776;2024-02-21T00:37:27;11.60;;;4.70;;
7377;SDS011;3730;50.856;12.776;2024-02-21T00:39:54;16.10;;;4.87;;
7377;SDS011;3730;50.856;12.776;2024-02-21T00:42:20;17.13;;;5.00;;
7377;SDS011;3730;50.856;12.776;2024-02-21T00:44:46;15.57;;;5.70;;
7377;SDS011;3730;50.856;12.776;2024-02-21T00:47:12;14.93;;;5.33;;
7377;SDS011;3730;50.856;12.776;2024-02-21T00:49:38;13.17;;;4.80;;
7377;SDS011;3730;50.856;12.776;2024-02-21T00:52:04;12.23;;;4.93;;
7377;SDS011;3730;50.856;12.776;2024-02-21T00:54:30;18.87;;;5.23;;
7377;SDS011;3730;50.856;12.776;2024-02-21T00:56:56;19.77;;;6.03;;
7377;SDS011;3730;50.856;12.776;2024-02-21T00:59:22;14.70;;;4.97;;
7377;SDS011;3730;50.856;12.776;2024-02-21T01:01:48;12.90;;;5.23;;
7377;SDS011;3730;50.856;12.776;2024-02-21T01:04:14;16.33;;;5.47;;
7377;SDS011;3730;50.856;12.776;2024-02-21T01:06:40;14.07;;;5.10;;
7377;SDS011;3730;50.856;12.776;2024-02-21T01:09:08;12.10;;;4.73;;
7377;SDS011;3730;50.856;12.776;2024-02-21T01:11:34;6.63;;;4.07;;
7377;SDS011;3730;50.856;12.776;2024-02-21T01:14:01;14.83;;;5.70;;
7377;SDS011;3730;50.856;12.776;2024-02-21T01:16:27;17.47;;;5.17;;
7377;SDS011;3730;50.856;12.776;2024-02-21T01:18:53;14.47;;;5.03;;
7377;SDS011;3730;50.856;12.776;2024-02-21T01:21:19;16.03;;;5.20;;
7377;SDS011;3730;50.856;12.776;2024-02-21T01:23:45;14.67;;;4.90;;
7377;SDS011;3730;50.856;12.776;2024-02-21T01:26:11;13.73;;;4.57;;
7377;SDS011;3730;50.856;12.776;2024-02-21T01:28:38;19.13;;;5.27;;
7377;SDS011;3730;50.856;12.776;2024-02-21T01:31:04;14.27;;;5.50;;
7377;SDS011;3730;50.856;12.776;2024-02-21T01:33:30;12.90;;;4.70;;
7377;SDS011;3730;50.856;12.776;2024-02-21T01:36:03;13.83;;;5.30;;
7377;SDS011;3730;50.856;12.776;2024-02-21T01:38:31;13.50;;;5.53;;
7377;SDS011;3730;50.856;12.776;2024-02-21T01:40:57;14.17;;;5.30;;
7377;SDS011;3730;50.856;12.776;2024-02-21T01:43:23;12.60;;;4.83;;
7377;SDS011;3730;50.856;12.776;2024-02-21T01:45:50;11.77;;;4.93;;
7377;SDS011;3730;50.856;12.776;2024-02-21T01:48:17;16.57;;;5.63;;
7377;SDS011;3730;50.856;12.776;2024-02-21T01:50:47;11.87;;;5.40;;
7377;SDS011;3730;50.856;12.776;2024-02-21T01:53:13;12.67;;;5.20;;
7377;SDS011;3730;50.856;12.776;2024-02-21T01:55:44;12.80;;;5.07;;
7377;SDS011;3730;50.856;12.776;2024-02-21T01:58:10;12.97;;;5.83;;
7377;SDS011;3730;50.856;12.776;2024-02-21T02:00:37;12.87;;;5.47;;
7377;SDS011;3730;50.856;12.776;2024-02-21T02:03:04;14.97;;;5.57;;
7377;SDS011;3730;50.856;12.776;2024-02-21T02:05:30;12.77;;;5.97;;
7377;SDS011;3730;50.856;12.776;2024-02-21T02:07:56;15.17;;;6.10;;
7377;SDS011;3730;50.856;12.776;2024-02-21T02:10:22;15.97;;;5.77;;
7377;SDS011;3730;50.856;12.776;2024-02-21T02:12:48;10.33;;;5.30;;
7377;SDS011;3730;50.856;12.776;2024-02-21T02:15:13;10.40;;;4.90;;
7377;SDS011;3730;50.856;12.776;2024-02-21T02:17:39;12.43;;;5.43;;
7377;SDS011;3730;50.856;12.776;2024-02-21T02:20:06;15.30;;;4.97;;
7377;SDS011;3730;50.856;12.776;2024-02-21T02:22:32;18.03;;;5.17;;
7377;SDS011;3730;50.856;12.776;2024-02-21T02:25:01;13.87;;;5.63;;
7377;SDS011;3730;50.856;12.776;2024-02-21T02:27:27;15.37;;;5.70;;
7377;SDS011;3730;50.856;12.776;2024-02-21T02:29:53;11.40;;;5.07;;
7377;SDS011;3730;50.856;12.776;2024-02-21T02:32:19;21.03;;;6.50;;
7377;SDS011;3730;50.856;12.776;2024-02-21T02:34:45;14.37;;;5.43;;
7377;SDS011;3730;50.856;12.776;2024-02-21T02:37:11;12.97;;;5.40;;
7377;SDS011;3730;50.856;12.776;2024-02-21T02:39:37;18.40;;;6.70;;
7377;SDS011;3730;50.856;12.776;2024-02-21T02:42:03;15.03;;;5.63;;
7377;SDS011;3730;50.856;12.776;2024-02-21T02:44:29;12.10;;;5.90;;
7377;SDS011;3730;50.856;12.776;2024-02-21T02:46:55;12.73;;;6.00;;
7377;SDS011;3730;50.856;12.776;2024-02-21T02:49:21;18.63;;;5.63;;
7377;SDS011;3730;50.856;12.776;2024-02-21T02:51:47;12.93;;;5.80;;
7377;SDS011;3730;50.856;12.776;2024-02-21T02:54:13;13.13;;;5.30;;
7377;SDS011;3730;50.856;12.776;2024-02-21T02:56:39;12.40;;;5.53;;
7377;SDS011;3730;50.856;12.776;2024-02-21T02:59:04;14.30;;;5.57;;
7377;SDS011;3730;50.856;12.776;2024-02-21T03:01:33;17.13;;;5.70;;
7377;SDS011;3730;50.856;12.776;2024-02-21T03:04:00;16.13;;;5.93;;
7377;SDS011;3730;50.856;12.776;2024-02-21T03:06:26;14.80;;;6.13;;
7377;SDS011;3730;50.856;12.776;2024-02-21T03:08:52;15.53;;;5.97;;
7377;SDS011;3730;50.856;12.776;2024-02-21T03:11:19;14.70;;;5.60;;
7377;SDS011;3730;50.856;12.776;2024-02-21T03:13:46;12.63;;;6.03;;
7377;SDS011;3730;50.856;12.776;2024-02-21T03:16:12;15.03;;;5.47;;
7377;SDS011;3730;50.856;12.776;2024-02-21T03:18:38;16.67;;;6.03;;
7377;SDS011;3730;50.856;12.776;2024-02-21T03:21:04;14.30;;;6.07;;
7377;SDS011;3730;50.856;12.776;2024-02-21T03:23:30;16.77;;;6.13;;
7377;SDS011;3730;50.856;12.776;2024-02-21T03:25:56;16.67;;;6.70;;
7377;SDS011;3730;50.856;12.776;2024-02-21T03:28:22;14.47;;;6.03;;
7377;SDS011;3730;50.856;12.776;2024-02-21T03:30:48;12.23;;;5.80;;
7377;SDS011;3730;50.856;12.776;2024-02-21T03:33:14;12.97;;;5.70;;
7377;SDS011;3730;50.856;12.776;2024-02-21T03:35:40;13.77;;;6.10;;
7377;SDS011;3730;50.856;12.776;2024-02-21T03:38:06;13.13;;;6.03;;
7377;SDS011;3730;50.856;12.776;2024-02-21T03:40:32;12.27;;;5.87;;
7377;SDS011;3730;50.856;12.776;2024-02-21T03:42:57;16.17;;;6.13;;
7377;SDS011;3730;50.856;12.776;2024-02-21T03:45:23;14.33;;;6.00;;
7377;SDS011;3730;50.856;12.776;2024-02-21T03:47:49;15.63;;;6.00;;
7377;SDS011;3730;50.856;12.776;2024-02-21T03:50:16;15.23;;;5.80;;
7377;SDS011;3730;50.856;12.776;2024-02-21T03:52:42;13.70;;;5.30;;
7377;SDS011;3730;50.856;12.776;2024-02-21T03:55:08;11.93;;;5.60;;
7377;SDS011;3730;50.856;12.776;2024-02-21T03:57:34;15.93;;;5.20;;
7377;SDS011;3730;50.856;12.776;2024-02-21T04:00:00;14.83;;;5.70;;
7377;SDS011;3730;50.856;12.776;2024-02-21T04:02:26;20.07;;;6.53;;
7377;SDS011;3730;50.856;12.776;2024-02-21T04:04:52;18.70;;;6.87;;
7377;SDS011;3730;50.856;12.776;2024-02-21T04:07:17;13.87;;;6.13;;
7377;SDS011;3730;50.856;12.776;2024-02-21T04:09:43;10.37;;;6.10;;
7377;SDS011;3730;50.856;12.776;2024-02-21T04:12:09;18.07;;;6.90;;
7377;SDS011;3730;50.856;12.776;2024-02-21T04:14:35;14.00;;;6.40;;
7377;SDS011;3730;50.856;12.776;2024-02-21T04:17:01;12.70;;;6.33;;
7377;SDS011;3730;50.856;12.776;2024-02-21T04:19:28;17.33;;;6.70;;
7377;SDS011;3730;50.856;12.776;2024-02-21T04:21:56;14.87;;;6.83;;
7377;SDS011;3730;50.856;12.776;2024-02-21T04:24:21;20.53;;;6.47;;
7377;SDS011;3730;50.856;12.776;2024-02-21T04:26:47;14.93;;;6.43;;
7377;SDS011;3730;50.856;12.776;2024-02-21T04:29:14;11.83;;;6.40;;
7377;SDS011;3730;50.856;12.776;2024-02-21T04:31:40;18.63;;;6.80;;
7377;SDS011;3730;50.856;12.776;2024-02-21T04:34:06;14.87;;;7.07;;
7377;SDS011;3730;50.856;12.776;2024-02-21T04:36:32;18.53;;;6.90;;
7377;SDS011;3730;50.856;12.776;2024-02-21T04:38:59;17.17;;;6.87;;
7377;SDS011;3730;50.856;12.776;2024-02-21T04:41:25;15.77;;;6.93;;
7377;SDS011;3730;50.856;12.776;2024-02-21T04:43:51;17.10;;;6.07;;
7377;SDS011;3730;50.856;12.776;2024-02-21T04:46:17;17.23;;;7.30;;
7377;SDS011;3730;50.856;12.776;2024-02-21T04:48:43;13.57;;;5.90;;
7377;SDS011;3730;50.856;12.776;2024-02-21T04:51:09;14.93;;;6.07;;
7377;SDS011;3730;50.856;12.776;2024-02-21T04:53:35;15.50;;;6.30;;
7377;SDS011;3730;50.856;12.776;2024-02-21T04:56:01;15.17;;;5.97;;
7377;SDS011;3730;50.856;12.776;2024-02-21T04:58:27;16.07;;;6.10;;
7377;SDS011;3730;50.856;12.776;2024-02-21T05:00:53;16.67;;;6.43;;
7377;SDS011;3730;50.856;12.776;2024-02-21T05:03:20;15.93;;;6.67;;
7377;SDS011;3730;50.856;12.776;2024-02-21T05:05:46;13.73;;;7.13;;
7377;SDS011;3730;50.856;12.776;2024-02-21T05:08:12;16.13;;;6.57;;
7377;SDS011;3730;50.856;12.776;2024-02-21T05:10:38;16.43;;;7.10;;
7377;SDS011;3730;50.856;12.776;2024-02-21T05:13:04;15.13;;;6.60;;
7377;SDS011;3730;50.856;12.776;2024-02-21T05:15:30;13.20;;;6.97;;
7377;SDS011;3730;50.856;12.776;2024-02-21T05:17:56;16.93;;;6.70;;
7377;SDS011;3730;50.856;12.776;2024-02-21T05:20:22;16.87;;;7.60;;
7377;SDS011;3730;50.856;12.776;2024-02-21T05:22:48;18.67;;;6.83;;
7377;SDS011;3730;50.856;12.776;2024-02-21T05:25:14;14.73;;;6.57;;
7377;SDS011;3730;50.856;12.776;2024-02-21T05:27:40;22.17;;;7.27;;
7377;SDS011;3730;50.856;12.776;2024-02-21T05:30:06;17.40;;;7.10;;
7377;SDS011;3730;50.856;12.776;2024-02-21T05:32:32;16.20;;;7.63;;
7377;SDS011;3730;50.856;12.776;2024-02-21T05:34:58;17.77;;;6.80;;
7377;SDS011;3730;50.856;12.776;2024-02-21T05:37:24;11.93;;;6.30;;
7377;SDS011;3730;50.856;12.776;2024-02-21T05:39:50;15.40;;;6.90;;
7377;SDS011;3730;50.856;12.776;2024-02-21T05:42:16;15.90;;;6.67;;
7377;SDS011;3730;50.856;12.776;2024-02-21T05:44:42;16.43;;;6.40;;
7377;SDS011;3730;50.856;12.776;2024-02-21T05:47:08;17.50;;;6.33;;
7377;SDS011;3730;50.856;12.776;2024-02-21T05:49:35;14.53;;;6.37;;
7377;SDS011;3730;50.856;12.776;2024-02-21T05:52:01;20.23;;;6.50;;
7377;SDS011;3730;50.856;12.776;2024-02-21T05:54:27;19.87;;;7.23;;
7377;SDS011;3730;50.856;12.776;2024-02-21T05:56:53;13.57;;;6.67;;
7377;SDS011;3730;50.856;12.776;2024-02-21T05:59:19;17.80;;;7.47;;
7377;SDS011;3730;50.856;12.776;2024-02-21T06:01:45;14.13;;;6.00;;
7377;SDS011;3730;50.856;12.776;2024-02-21T06:04:21;14.37;;;6.60;;
7377;SDS011;3730;50.856;12.776;2024-02-21T06:06:47;17.57;;;6.93;;
7377;SDS011;3730;50.856;12.776;2024-02-21T06:09:13;21.57;;;7.40;;
7377;SDS011;3730;50.856;12.776;2024-02-21T06:11:38;15.73;;;6.30;;
7377;SDS011;3730;50.856;12.776;2024-02-21T06:14:04;17.17;;;6.77;;
7377;SDS011;3730;50.856;12.776;2024-02-21T06:16:30;18.97;;;6.63;;
7377;SDS011;3730;50.856;12.776;2024-02-21T06:18:56;17.57;;;7.30;;
7377;SDS011;3730;50.856;12.776;2024-02-21T06:21:22;15.07;;;7.13;;
7377;SDS011;3730;50.856;12.776;2024-02-21T06:23:48;18.23;;;6.73;;
7377;SDS011;3730;50.856;12.776;2024-02-21T06:26:14;14.40;;;7.43;;
7377;SDS011;3730;50.856;12.776;2024-02-21T06:28:40;18.93;;;6.93;;
7377;SDS011;3730;50.856;12.776;2024-02-21T06:31:07;23.03;;;7.47;;
7377;SDS011;3730;50.856;12.776;2024-02-21T06:33:33;12.93;;;6.50;;
7377;SDS011;3730;50.856;12.776;2024-02-21T06:35:59;15.53;;;7.07;;
7377;SDS011;3730;50.856;12.776;2024-02-21T06:38:25;15.03;;;6.73;;
7377;SDS011;3730;50.856;12.776;2024-02-21T06:40:51;16.90;;;6.90;;
7377;SDS011;3730;50.856;12.776;2024-02-21T06:43:19;16.70;;;6.83;;
7377;SDS011;3730;50.856;12.776;2024-02-21T06:45:45;16.57;;;6.90;;
7377;SDS011;3730;50.856;12.776;2024-02-21T06:48:18;15.73;;;6.63;;
7377;SDS011;3730;50.856;12.776;2024-02-21T06:50:44;17.73;;;7.00;;
7377;SDS011;3730;50.856;12.776;2024-02-21T06:53:10;15.53;;;7.03;;
7377;SDS011;3730;50.856;12.776;2024-02-21T06:55:36;16.10;;;7.03;;
7377;SDS011;3730;50.856;12.776;2024-02-21T06:58:02;16.70;;;7.07;;
7377;SDS011;3730;50.856;12.776;2024-02-21T07:00:28;18.07;;;7.37;;
7377;SDS011;3730;50.856;12.776;2024-02-21T07:02:55;14.07;;;6.50;;
7377;SDS011;3730;50.856;12.776;2024-02-21T07:05:21;15.17;;;7.00;;
7377;SDS011;3730;50.856;12.776;2024-02-21T07:07:47;19.20;;;7.50;;
7377;SDS011;3730;50.856;12.776;2024-02-21T07:10:13;20.47;;;7.80;;
7377;SDS011;3730;50.856;12.776;2024-02-21T07:12:39;10.90;;;6.43;;
7377;SDS011;3730;50.856;12.776;2024-02-21T07:15:08;14.87;;;7.23;;
7377;SDS011;3730;50.856;12.776;2024-02-21T07:17:34;17.93;;;6.87;;
7377;SDS011;3730;50.856;12.776;2024-02-21T07:20:00;14.47;;;7.10;;
7377;SDS011;3730;50.856;12.776;2024-02-21T07:22:26;15.60;;;6.97;;
7377;SDS011;3730;50.856;12.776;2024-02-21T07:24:52;19.47;;;7.33;;
7377;SDS011;3730;50.856;12.776;2024-02-21T07:27:18;17.80;;;6.50;;
7377;SDS011;3730;50.856;12.776;2024-02-21T07:29:44;20.73;;;7.60;;
7377;SDS011;3730;50.856;12.776;2024-02-21T07:32:12;14.47;;;6.53;;
7377;SDS011;3730;50.856;12.776;2024-02-21T07:34:38;18.73;;;7.20;;
7377;SDS011;3730;50.856;12.776;2024-02-21T07:37:04;17.30;;;7.37;;
7377;SDS011;3730;50.856;12.776;2024-02-21T07:39:30;14.43;;;7.07;;
7377;SDS011;3730;50.856;12.776;2024-02-21T07:41:56;16.53;;;6.63;;
7377;SDS011;3730;50.856;12.776;2024-02-21T07:44:22;15.70;;;7.30;;
7377;SDS011;3730;50.856;12.776;2024-02-21T07:46:48;18.50;;;7.90;;
7377;SDS011;3730;50.856;12.776;2024-02-21T07:49:14;17.40;;;7.23;;
7377;SDS011;3730;50.856;12.776;2024-02-21T07:51:40;15.00;;;6.77;;
7377;SDS011;3730;50.856;12.776;2024-02-21T07:54:07;15.27;;;6.87;;
7377;SDS011;3730;50.856;12.776;2024-02-21T07:56:33;16.53;;;7.40;;
7377;SDS011;3730;50.856;12.776;2024-02-21T07:58:59;17.40;;;7.57;;
7377;SDS011;3730;50.856;12.776;2024-02-21T08:01:25;17.37;;;8.07;;
7377;SDS011;3730;50.856;12.776;2024-02-21T08:03:51;19.70;;;7.37;;
7377;SDS011;3730;50.856;12.776;2024-02-21T08:06:17;15.87;;;7.40;;
7377;SDS011;3730;50.856;12.776;2024-02-21T08:08:43;19.77;;;8.43;;
7377;SDS011;3730;50.856;12.776;2024-02-21T08:11:08;17.23;;;7.97;;
7377;SDS011;3730;50.856;12.776;2024-02-21T08:13:34;16.70;;;8.27;;
7377;SDS011;3730;50.856;12.776;2024-02-21T08:16:00;19.53;;;7.90;;
7377;SDS011;3730;50.856;12.776;2024-02-21T08:18:28;18.13;;;7.60;;
7377;SDS011;3730;50.856;12.776;2024-02-21T08:20:54;14.53;;;7.70;;
7377;SDS011;3730;50.856;12.776;2024-02-21T08:23:22;17.27;;;7.10;;
7377;SDS011;3730;50.856;12.776;2024-02-21T08:25:48;17.63;;;7.67;;
7377;SDS011;3730;50.856;12.776;2024-02-21T08:28:14;16.33;;;7.20;;
7377;SDS011;3730;50.856;12.776;2024-02-21T08:30:40;13.60;;;7.33;;
7377;SDS011;3730;50.856;12.776;2024-02-21T08:33:09;13.13;;;6.83;;
7377;SDS011;3730;50.856;12.776;2024-02-21T08:35:35;15.97;;;6.47;;
7377;SDS011;3730;50.856;12.776;2024-02-21T08:38:01;13.40;;;6.77;;
7377;SDS011;3730;50.856;12.776;2024-02-21T08:40:27;15.00;;;6.90;;
7377;SDS011;3730;50.856;12.776;2024-02-21T08:42:53;13.80;;;6.60;;
7377;SDS011;3730;50.856;12.776;2024-02-21T08:45:19;16.57;;;6.93;;
7377;SDS011;3730;50.856;12.776;2024-02-21T08:47:45;10.63;;;6.53;;
7377;SDS011;3730;50.856;12.776;2024-02-21T08:50:11;9.37;;;5.90;;
7377;SDS011;3730;50.856;12.776;2024-02-21T08:52:37;11.27;;;5.77;;
7377;SDS011;3730;50.856;12.776;2024-02-21T08:55:03;12.43;;;6.17;;
7377;SDS011;3730;50.856;12.776;2024-02-21T08:57:29;15.53;;;6.30;;
7377;SDS011;3730;50.856;12.776;2024-02-21T09:00:03;13.23;;;6.03;;
7377;SDS011;3730;50.856;12.776;2024-02-21T09:02:34;8.20;;;5.23;;
7377;SDS011;3730;50.856;12.776;2024-02-21T09:05:00;13.23;;;6.07;;
7377;SDS011;3730;50.856;12.776;2024-02-21T09:07:26;11.13;;;6.17;;
7377;SDS011;3730;50.856;12.776;2024-02-21T09:09:52;12.30;;;5.53;;
7377;SDS011;3730;50.856;12.776;2024-02-21T09:12:18;14.90;;;5.70;;
7377;SDS011;3730;50.856;12.776;2024-02-21T09:14:44;15.10;;;6.23;;
7377;SDS011;3730;50.856;12.776;2024-02-21T09:17:14;11.90;;;6.33;;
7377;SDS011;3730;50.856;12.776;2024-02-21T09:19:42;13.90;;;6.03;;
7377;SDS011;3730;50.856;12.776;2024-02-21T09:22:08;12.40;;;5.70;;
7377;SDS011;3730;50.856;12.776;2024-02-21T09:24:34;14.17;;;5.40;;
7377;SDS011;3730;50.856;12.776;2024-02-21T09:27:00;11.53;;;5.70;;
7377;SDS011;3730;50.856;12.776;2024-02-21T09:29:26;12.83;;;5.60;;
7377;SDS011;3730;50.856;12.776;2024-02-21T09:31:52;12.37;;;5.77;;
7377;SDS011;3730;50.856;12.776;2024-02-21T09:34:18;13.63;;;5.50;;
7377;SDS011;3730;50.856;12.776;2024-02-21T09:36:44;13.33;;;5.67;;
7377;SDS011;3730;50.856;12.776;2024-02-21T09:39:10;10.27;;;4.83;;
7377;SDS011;3730;50.856;12.776;2024-02-21T09:41:39;14.70;;;5.40;;
7377;SDS011;3730;50.856;12.776;2024-02-21T09:44:09;12.17;;;5.20;;
7377;SDS011;3730;50.856;12.776;2024-02-21T09:46:53;8.80;;;4.43;;
7377;SDS011;3730;50.856;12.776;2024-02-21T09:51:53;10.23;;;5.03;;
7377;SDS011;3730;50.856;12.776;2024-02-21T09:54:20;8.53;;;4.10;;
7377;SDS011;3730;50.856;12.776;2024-02-21T09:56:47;13.47;;;5.27;;
7377;SDS011;3730;50.856;12.776;2024-02-21T09:59:14;8.67;;;4.77;;
7377;SDS011;3730;50.856;12.776;2024-02-21T10:01:42;9.40;;;4.73;;
7377;SDS011;3730;50.856;12.776;2024-02-21T10:04:09;9.23;;;4.83;;
7377;SDS011;3730;50.856;12.776;2024-02-21T10:06:35;6.43;;;4.20;;
7377;SDS011;3730;50.856;12.776;2024-02-21T10:09:02;15.97;;;5.07;;
7377;SDS011;3730;50.856;12.776;2024-02-21T10:11:28;8.23;;;4.40;;
7377;SDS011;3730;50.856;12.776;2024-02-21T10:14:05;10.23;;;4.30;;
7377;SDS011;3730;50.856;12.776;2024-02-21T10:16:32;9.87;;;4.30;;
7377;SDS011;3730;50.856;12.776;2024-02-21T10:19:02;10.00;;;4.30;;
7377;SDS011;3730;50.856;12.776;2024-02-21T10:21:28;7.47;;;4.40;;
7377;SDS011;3730;50.856;12.776;2024-02-21T10:23:54;8.17;;;4.20;;
7377;SDS011;3730;50.856;12.776;2024-02-21T10:26:20;11.83;;;4.47;;
7377;SDS011;3730;50.856;12.776;2024-02-21T10:28:47;9.73;;;4.60;;
7377;SDS011;3730;50.856;12.776;2024-02-21T10:31:25;6.80;;;3.80;;
7377;SDS011;3730;50.856;12.776;2024-02-21T10:33:58;8.20;;;4.00;;
7377;SDS011;3730;50.856;12.776;2024-02-21T10:36:25;13.43;;;4.50;;
7377;SDS011;3730;50.856;12.776;2024-02-21T10:38:51;14.73;;;4.80;;
7377;SDS011;3730;50.856;12.776;2024-02-21T10:41:19;9.73;;;5.20;;
7377;SDS011;3730;50.856;12.776;2024-02-21T10:43:46;16.40;;;5.07;;
7377;SDS011;3730;50.856;12.776;2024-02-21T10:46:14;7.97;;;4.30;;
7377;SDS011;3730;50.856;12.776;2024-02-21T10:48:44;14.47;;;4.70;;
7377;SDS011;3730;50.856;12.776;2024-02-21T10:51:17;10.73;;;4.90;;
7377;SDS011;3730;50.856;12.776;2024-02-21T10:56:29;8.30;;;4.00;;
7377;SDS011;3730;50.856;12.776;2024-02-21T10:58:57;8.40;;;4.23;;
7377;SDS011;3730;50.856;12.776;2024-02-21T11:01:23;9.20;;;4.13;;
7377;SDS011;3730;50.856;12.776;2024-02-21T11:03:52;5.97;;;4.10;;
7377;SDS011;3730;50.856;12.776;2024-02-21T11:06:19;11.97;;;4.60;;
7377;SDS011;3730;50.856;12.776;2024-02-21T11:08:46;9.00;;;4.23;;
7377;SDS011;3730;50.856;12.776;2024-02-21T11:11:13;12.20;;;3.97;;
7377;SDS011;3730;50.856;12.776;2024-02-21T11:13:42;8.80;;;3.67;;
7377;SDS011;3730;50.856;12.776;2024-02-21T11:16:09;9.77;;;3.83;;
7377;SDS011;3730;50.856;12.776;2024-02-21T11:18:38;11.10;;;4.30;;
7377;SDS011;3730;50.856;12.776;2024-02-21T11:21:04;10.00;;;3.80;;
7377;SDS011;3730;50.856;12.776;2024-02-21T11:23:30;8.33;;;4.00;;
7377;SDS011;3730;50.856;12.776;2024-02-21T11:26:06;6.83;;;3.67;;
7377;SDS011;3730;50.856;12.776;2024-02-21T11:28:33;10.80;;;3.73;;
7377;SDS011;3730;50.856;12.776;2024-02-21T11:31:12;9.33;;;3.60;;
7377;SDS011;3730;50.856;12.776;2024-02-21T11:33:42;10.00;;;4.03;;
7377;SDS011;3730;50.856;12.776;2024-02-21T11:36:11;9.43;;;3.97;;
7377;SDS011;3730;50.856;12.776;2024-02-21T11:38:48;8.40;;;3.70;;
7377;SDS011;3730;50.856;12.776;2024-02-21T11:41:14;7.90;;;3.40;;
7377;SDS011;3730;50.856;12.776;2024-02-21T11:43:40;6.53;;;3.70;;
7377;SDS011;3730;50.856;12.776;2024-02-21T11:46:06;6.57;;;3.40;;
7377;SDS011;3730;50.856;12.776;2024-02-21T11:48:32;5.20;;;3.40;;
7377;SDS011;3730;50.856;12.776;2024-02-21T11:50:58;6.63;;;4.00;;
7377;SDS011;3730;50.856;12.776;2024-02-21T11:53:25;6.43;;;3.50;;
7377;SDS011;3730;50.856;12.776;2024-02-21T11:55:56;8.47;;;3.97;;
7377;SDS011;3730;50.856;12.776;2024-02-21T11:58:22;9.17;;;3.70;;
7377;SDS011;3730;50.856;12.776;2024-02-21T12:00:48;5.87;;;3.77;;
7377;SDS011;3730;50.856;12.776;2024-02-21T12:03:14;6.17;;;3.50;;
7377;SDS011;3730;50.856;12.776;2024-02-21T12:05:43;6.30;;;3.10;;
7377;SDS011;3730;50.856;12.776;2024-02-21T12:08:11;5.00;;;3.30;;
7377;SDS011;3730;50.856;12.776;2024-02-21T12:10:37;18.40;;;4.00;;
7377;SDS011;3730;50.856;12.776;2024-02-21T12:13:07;4.67;;;2.97;;
7377;SDS011;3730;50.856;12.776;2024-02-21T12:15:33;5.33;;;2.77;;
7377;SDS011;3730;50.856;12.776;2024-02-21T12:17:59;9.43;;;3.07;;
7377;SDS011;3730;50.856;12.776;2024-02-21T12:20:25;6.43;;;2.60;;
7377;SDS011;3730;50.856;12.776;2024-02-21T12:22:52;8.50;;;3.03;;
7377;SDS011;3730;50.856;12.776;2024-02-21T12:25:19;8.37;;;3.07;;
7377;SDS011;3730;50.856;12.776;2024-02-21T12:27:51;6.10;;;2.60;;
7377;SDS011;3730;50.856;12.776;2024-02-21T12:30:17;6.17;;;2.93;;
7377;SDS011;3730;50.856;12.776;2024-02-21T12:32:44;9.87;;;4.23;;
7377;SDS011;3730;50.856;12.776;2024-02-21T12:35:10;5.90;;;2.73;;
7377;SDS011;3730;50.856;12.776;2024-02-21T12:37:36;6.20;;;3.07;;
7377;SDS011;3730;50.856;12.776;2024-02-21T12:40:06;4.97;;;2.60;;
7377;SDS011;3730;50.856;12.776;2024-02-21T12:42:35;7.03;;;2.90;;
7377;SDS011;3730;50.856;12.776;2024-02-21T12:45:02;8.73;;;3.00;;
7377;SDS011;3730;50.856;12.776;2024-02-21T12:47:30;5.93;;;2.90;;
7377;SDS011;3730;50.856;12.776;2024-02-21T12:49:56;4.73;;;3.03;;
7377;SDS011;3730;50.856;12.776;2024-02-21T12:52:23;6.30;;;3.20;;
7377;SDS011;3730;50.856;12.776;2024-02-21T12:54:49;6.50;;;3.10;;
7377;SDS011;3730;50.856;12.776;2024-02-21T12:57:16;6.60;;;2.87;;
7377;SDS011;3730;50.856;12.776;2024-02-21T12:59:42;6.90;;;2.90;;
7377;SDS011;3730;50.856;12.776;2024-02-21T13:02:08;6.13;;;2.70;;
7377;SDS011;3730;50.856;12.776;2024-02-21T13:04:34;6.43;;;3.03;;
7377;SDS011;3730;50.856;12.776;2024-02-21T13:07:00;7.50;;;2.73;;
7377;SDS011;3730;50.856;12.776;2024-02-21T13:09:26;9.00;;;3.17;;
7377;SDS011;3730;50.856;12.776;2024-02-21T13:11:52;7.30;;;3.30;;
7377;SDS011;3730;50.856;12.776;2024-02-21T13:14:18;6.23;;;2.93;;
7377;SDS011;3730;50.856;12.776;2024-02-21T13:16:45;7.53;;;2.97;;
7377;SDS011;3730;50.856;12.776;2024-02-21T13:19:11;5.17;;;2.63;;
7377;SDS011;3730;50.856;12.776;2024-02-21T13:21:42;7.40;;;2.90;;
7377;SDS011;3730;50.856;12.776;2024-02-21T13:24:08;5.37;;;2.80;;
7377;SDS011;3730;50.856;12.776;2024-02-21T13:26:34;5.17;;;2.73;;
7377;SDS011;3730;50.856;12.776;2024-02-21T13:29:00;6.57;;;3.00;;
7377;SDS011;3730;50.856;12.776;2024-02-21T13:31:26;11.23;;;3.00;;
7377;SDS011;3730;50.856;12.776;2024-02-21T13:33:52;7.40;;;2.93;;
7377;SDS011;3730;50.856;12.776;2024-02-21T13:36:18;8.33;;;2.90;;
7377;SDS011;3730;50.856;12.776;2024-02-21T13:38:44;5.10;;;2.57;;
7377;SDS011;3730;50.856;12.776;2024-02-21T13:41:11;5.63;;;2.53;;
7377;SDS011;3730;50.856;12.776;2024-02-21T13:43:37;6.63;;;2.77;;
7377;SDS011;3730;50.856;12.776;2024-02-21T13:46:03;7.00;;;2.77;;
7377;SDS011;3730;50.856;12.776;2024-02-21T13:48:34;7.37;;;2.87;;
7377;SDS011;3730;50.856;12.776;2024-02-21T13:51:00;7.80;;;2.60;;
7377;SDS011;3730;50.856;12.776;2024-02-21T13:53:27;5.23;;;2.37;;
7377;SDS011;3730;50.856;12.776;2024-02-21T13:55:53;7.37;;;2.63;;
7377;SDS011;3730;50.856;12.776;2024-02-21T13:58:19;3.23;;;2.13;;
7377;SDS011;3730;50.856;12.776;2024-02-21T14:00:46;6.70;;;2.70;;
7377;SDS011;3730;50.856;12.776;2024-02-21T14:03:12;8.37;;;3.20;;
7377;SDS011;3730;50.856;12.776;2024-02-21T14:05:38;4.40;;;2.13;;
7377;SDS011;3730;50.856;12.776;2024-02-21T14:08:07;8.93;;;2.43;;
7377;SDS011;3730;50.856;12.776;2024-02-21T14:10:33;3.97;;;2.27;;
7377;SDS011;3730;50.856;12.776;2024-02-21T14:12:59;4.63;;;2.37;;
7377;SDS011;3730;50.856;12.776;2024-02-21T14:15:25;3.07;;;1.73;;
7377;SDS011;3730;50.856;12.776;2024-02-21T14:17:51;7.03;;;2.30;;
7377;SDS011;3730;50.856;12.776;2024-02-21T14:20:17;4.97;;;2.20;;
7377;SDS011;3730;50.856;12.776;2024-02-21T14:22:43;5.77;;;2.10;;
7377;SDS011;3730;50.856;12.776;2024-02-21T14:25:09;4.17;;;2.33;;
7377;SDS011;3730;50.856;12.776;2024-02-21T14:27:35;4.53;;;2.20;;
7377;SDS011;3730;50.856;12.776;2024-02-21T14:30:02;5.30;;;2.20;;
7377;SDS011;3730;50.856;12.776;2024-02-21T14:32:28;7.00;;;2.60;;
7377;SDS011;3730;50.856;12.776;2024-02-21T14:34:54;5.30;;;2.37;;
7377;SDS011;3730;50.856;12.776;2024-02-21T14:37:20;5.00;;;2.33;;
7377;SDS011;3730;50.856;12.776;2024-02-21T14:39:46;8.50;;;2.63;;
7377;SDS011;3730;50.856;12.776;2024-02-21T14:42:12;3.83;;;2.20;;
7377;SDS011;3730;50.856;12.776;2024-02-21T14:44:38;5.37;;;2.70;;
7377;SDS011;3730;50.856;12.776;2024-02-21T14:47:04;6.73;;;2.53;;
7377;SDS011;3730;50.856;12.776;2024-02-21T14:49:31;8.03;;;3.00;;
7377;SDS011;3730;50.856;12.776;2024-02-21T14:51:57;5.37;;;2.40;;
7377;SDS011;3730;50.856;12.776;2024-02-21T14:54:23;6.53;;;2.60;;